sensor_id;sensor_type;location;lat;lon;timestamp;temperature;humidity
5429;DHT22;2737;52.386;9.980;2023-05-07T00:01:37;9.70;99.90
5429;DHT22;2737;52.386;9.980;2023-05-07T00:04:05;9.70;99.90
5429;DHT22;2737;52.386;9.980;2023-05-07T00:06:33;9.60;99.90
5429;DHT22;2737;52.386;9.980;2023-05-07T00:09:00;9.60;99.90
5429;DHT22;2737;52.386;9.980;2023-05-07T00:11:27;9.60;99.90
5429;DHT22;2737;52.386;9.980;2023-05-07T00:13:54;9.60;99.90
5429;DHT22;2737;52.386;9.980;2023-05-07T00:16:22;9.70;99.90
5429;DHT22;2737;52.386;9.980;2023-05-07T00:18:49;9.60;99.90
5429;DHT22;2737;52.386;9.980;2023-05-07T00:21:16;9.60;99.90
5429;DHT22;2737;52.386;9.980;2023-05-07T00:23:43;9.70;99.90
5429;DHT22;2737;52.386;9.980;2023-05-07T00:26:10;9.70;99.90
5429;DHT22;2737;52.386;9.980;2023-05-07T00:28:37;9.70;99.90
5429;DHT22;2737;52.386;9.980;2023-05-07T00:31:05;9.70;99.90
5429;DHT22;2737;52.386;9.980;2023-05-07T00:33:33;9.60;99.90
5429;DHT22;2737;52.386;9.980;2023-05-07T00:36:00;9.60;99.90
5429;DHT22;2737;52.386;9.980;2023-05-07T00:38:27;9.60;99.90
5429;DHT22;2737;52.386;9.980;2023-05-07T00:40:54;9.60;99.90
5429;DHT22;2737;52.386;9.980;2023-05-07T00:43:21;9.60;99.90
5429;DHT22;2737;52.386;9.980;2023-05-07T00:45:49;9.50;99.90
5429;DHT22;2737;52.386;9.980;2023-05-07T00:48:16;9.40;99.90
5429;DHT22;2737;52.386;9.980;2023-05-07T00:50:45;9.50;99.90
5429;DHT22;2737;52.386;9.980;2023-05-07T00:53:13;9.50;99.90
5429;DHT22;2737;52.386;9.980;2023-05-07T00:55:40;9.40;99.90
5429;DHT22;2737;52.386;9.980;2023-05-07T00:58:07;9.40;99.90
5429;DHT22;2737;52.386;9.980;2023-05-07T01:00:35;9.40;99.90
5429;DHT22;2737;52.386;9.980;2023-05-07T01:03:02;9.40;99.90
5429;DHT22;2737;52.386;9.980;2023-05-07T01:05:29;9.40;99.90
5429;DHT22;2737;52.386;9.980;2023-05-07T01:07:58;9.40;99.90
5429;DHT22;2737;52.386;9.980;2023-05-07T01:10:26;9.30;99.90
5429;DHT22;2737;52.386;9.980;2023-05-07T01:12:54;9.40;99.90
5429;DHT22;2737;52.386;9.980;2023-05-07T01:15:21;9.30;99.90
5429;DHT22;2737;52.386;9.980;2023-05-07T01:17:48;9.30;99.90
5429;DHT22;2737;52.386;9.980;2023-05-07T01:20:15;9.30;99.90
5429;DHT22;2737;52.386;9.980;2023-05-07T01:22:44;9.30;99.90
5429;DHT22;2737;52.386;9.980;2023-05-07T01:25:11;9.40;99.90
5429;DHT22;2737;52.386;9.980;2023-05-07T01:27:39;9.50;99.90
5429;DHT22;2737;52.386;9.980;2023-05-07T01:30:07;9.40;99.90
5429;DHT22;2737;52.386;9.980;2023-05-07T01:32:38;9.40;99.90
5429;DHT22;2737;52.386;9.980;2023-05-07T01:35:09;9.40;99.90
5429;DHT22;2737;52.386;9.980;2023-05-07T01:37:38;9.50;99.90
5429;DHT22;2737;52.386;9.980;2023-05-07T01:40:08;9.50;99.90
5429;DHT22;2737;52.386;9.980;2023-05-07T01:42:36;9.50;99.90
5429;DHT22;2737;52.386;9.980;2023-05-07T01:45:03;9.50;99.90
5429;DHT22;2737;52.386;9.980;2023-05-07T01:47:31;9.50;99.90
5429;DHT22;2737;52.386;9.980;2023-05-07T01:49:58;9.50;99.90
5429;DHT22;2737;52.386;9.980;2023-05-07T01:52:27;9.50;99.90
5429;DHT22;2737;52.386;9.980;2023-05-07T01:54:54;9.50;99.90
5429;DHT22;2737;52.386;9.980;2023-05-07T01:57:23;9.50;99.90
5429;DHT22;2737;52.386;9.980;2023-05-07T01:59:50;9.50;99.90
5429;DHT22;2737;52.386;9.980;2023-05-07T02:02:17;9.50;99.90
5429;DHT22;2737;52.386;9.980;2023-05-07T02:04:43;9.50;99.90
5429;DHT22;2737;52.386;9.980;2023-05-07T02:07:10;9.50;99.90
5429;DHT22;2737;52.386;9.980;2023-05-07T02:09:38;9.50;99.90
5429;DHT22;2737;52.386;9.980;2023-05-07T02:12:05;9.50;99.90
5429;DHT22;2737;52.386;9.980;2023-05-07T02:14:33;9.60;99.90
5429;DHT22;2737;52.386;9.980;2023-05-07T02:17:00;9.50;99.90
5429;DHT22;2737;52.386;9.980;2023-05-07T02:19:27;9.50;99.90
5429;DHT22;2737;52.386;9.980;2023-05-07T02:21:54;9.50;99.90
5429;DHT22;2737;52.386;9.980;2023-05-07T02:24:21;9.50;99.90
5429;DHT22;2737;52.386;9.980;2023-05-07T02:26:48;9.50;99.90
5429;DHT22;2737;52.386;9.980;2023-05-07T02:29:15;9.60;99.90
5429;DHT22;2737;52.386;9.980;2023-05-07T02:31:44;9.50;99.90
5429;DHT22;2737;52.386;9.980;2023-05-07T02:34:11;9.50;99.90
5429;DHT22;2737;52.386;9.980;2023-05-07T02:36:38;9.50;99.90
5429;DHT22;2737;52.386;9.980;2023-05-07T02:39:05;9.60;99.90
5429;DHT22;2737;52.386;9.980;2023-05-07T02:41:32;9.60;99.90
5429;DHT22;2737;52.386;9.980;2023-05-07T02:43:59;9.60;99.90
5429;DHT22;2737;52.386;9.980;2023-05-07T02:46:26;9.50;99.90
5429;DHT22;2737;52.386;9.980;2023-05-07T02:48:55;9.60;99.90
5429;DHT22;2737;52.386;9.980;2023-05-07T02:51:22;9.50;99.90
5429;DHT22;2737;52.386;9.980;2023-05-07T02:53:49;9.50;99.90
5429;DHT22;2737;52.386;9.980;2023-05-07T02:56:17;9.40;99.90
5429;DHT22;2737;52.386;9.980;2023-05-07T02:58:44;9.40;99.90
5429;DHT22;2737;52.386;9.980;2023-05-07T03:01:11;9.40;99.90
5429;DHT22;2737;52.386;9.980;2023-05-07T03:03:39;9.40;99.90
5429;DHT22;2737;52.386;9.980;2023-05-07T03:06:08;9.40;99.90
5429;DHT22;2737;52.386;9.980;2023-05-07T03:08:35;9.30;99.90
5429;DHT22;2737;52.386;9.980;2023-05-07T03:11:02;9.30;99.90
5429;DHT22;2737;52.386;9.980;2023-05-07T03:13:29;9.30;99.90
5429;DHT22;2737;52.386;9.980;2023-05-07T03:15:56;9.30;99.90
5429;DHT22;2737;52.386;9.980;2023-05-07T03:18:23;9.30;99.90
5429;DHT22;2737;52.386;9.980;2023-05-07T03:20:51;9.30;99.90
5429;DHT22;2737;52.386;9.980;2023-05-07T03:23:20;9.30;99.90
5429;DHT22;2737;52.386;9.980;2023-05-07T03:25:47;9.30;99.90
5429;DHT22;2737;52.386;9.980;2023-05-07T03:28:14;9.30;99.90
5429;DHT22;2737;52.386;9.980;2023-05-07T03:30:41;9.30;99.90
5429;DHT22;2737;52.386;9.980;2023-05-07T03:33:08;9.30;99.90
5429;DHT22;2737;52.386;9.980;2023-05-07T03:35:35;9.20;99.90
5429;DHT22;2737;52.386;9.980;2023-05-07T03:38:02;9.30;99.90
5429;DHT22;2737;52.386;9.980;2023-05-07T03:40:31;9.30;99.90
5429;DHT22;2737;52.386;9.980;2023-05-07T03:42:58;9.30;99.90
5429;DHT22;2737;52.386;9.980;2023-05-07T03:45:26;9.30;99.90
5429;DHT22;2737;52.386;9.980;2023-05-07T03:47:53;9.30;99.90
5429;DHT22;2737;52.386;9.980;2023-05-07T03:50:20;9.30;99.90
5429;DHT22;2737;52.386;9.980;2023-05-07T03:52:47;9.20;99.90
5429;DHT22;2737;52.386;9.980;2023-05-07T03:55:14;9.20;99.90
5429;DHT22;2737;52.386;9.980;2023-05-07T03:57:42;9.20;99.90
5429;DHT22;2737;52.386;9.980;2023-05-07T04:00:10;9.20;99.90
5429;DHT22;2737;52.386;9.980;2023-05-07T04:02:38;9.20;99.90
5429;DHT22;2737;52.386;9.980;2023-05-07T04:05:05;9.20;99.90
5429;DHT22;2737;52.386;9.980;2023-05-07T04:07:32;9.30;99.90
5429;DHT22;2737;52.386;9.980;2023-05-07T04:09:59;9.20;99.90
5429;DHT22;2737;52.386;9.980;2023-05-07T04:12:26;9.20;99.90
5429;DHT22;2737;52.386;9.980;2023-05-07T04:14:54;9.20;99.90
5429;DHT22;2737;52.386;9.980;2023-05-07T04:17:21;9.20;99.90
5429;DHT22;2737;52.386;9.980;2023-05-07T04:19:48;9.20;99.90
5429;DHT22;2737;52.386;9.980;2023-05-07T04:22:15;9.20;99.90
5429;DHT22;2737;52.386;9.980;2023-05-07T04:24:42;9.20;99.90
5429;DHT22;2737;52.386;9.980;2023-05-07T04:27:12;9.20;99.90
5429;DHT22;2737;52.386;9.980;2023-05-07T04:29:39;9.20;99.90
5429;DHT22;2737;52.386;9.980;2023-05-07T04:32:09;9.20;99.90
5429;DHT22;2737;52.386;9.980;2023-05-07T04:34:36;9.20;99.90
5429;DHT22;2737;52.386;9.980;2023-05-07T04:37:03;9.20;99.90
5429;DHT22;2737;52.386;9.980;2023-05-07T04:39:30;9.20;99.90
5429;DHT22;2737;52.386;9.980;2023-05-07T04:41:57;9.20;99.90
5429;DHT22;2737;52.386;9.980;2023-05-07T04:44:24;9.20;99.90
5429;DHT22;2737;52.386;9.980;2023-05-07T04:46:51;9.10;99.90
5429;DHT22;2737;52.386;9.980;2023-05-07T04:49:20;9.10;99.90
5429;DHT22;2737;52.386;9.980;2023-05-07T04:51:47;9.10;99.90
5429;DHT22;2737;52.386;9.980;2023-05-07T04:54:14;9.10;99.90
5429;DHT22;2737;52.386;9.980;2023-05-07T04:56:41;9.10;99.90
5429;DHT22;2737;52.386;9.980;2023-05-07T04:59:08;9.10;99.90
5429;DHT22;2737;52.386;9.980;2023-05-07T05:01:35;9.10;99.90
5429;DHT22;2737;52.386;9.980;2023-05-07T05:04:02;9.10;99.90
5429;DHT22;2737;52.386;9.980;2023-05-07T05:06:30;9.10;99.90
5429;DHT22;2737;52.386;9.980;2023-05-07T05:08:57;9.10;99.90
5429;DHT22;2737;52.386;9.980;2023-05-07T05:11:24;9.10;99.90
5429;DHT22;2737;52.386;9.980;2023-05-07T05:13:51;9.20;99.90
5429;DHT22;2737;52.386;9.980;2023-05-07T05:16:18;9.20;99.90
5429;DHT22;2737;52.386;9.980;2023-05-07T05:18:45;9.20;99.90
5429;DHT22;2737;52.386;9.980;2023-05-07T05:21:12;9.20;99.90
5429;DHT22;2737;52.386;9.980;2023-05-07T05:23:41;9.20;99.90
5429;DHT22;2737;52.386;9.980;2023-05-07T05:26:08;9.30;99.90
5429;DHT22;2737;52.386;9.980;2023-05-07T05:28:35;9.30;99.90
5429;DHT22;2737;52.386;9.980;2023-05-07T05:31:02;9.30;99.90
5429;DHT22;2737;52.386;9.980;2023-05-07T05:33:29;9.40;99.90
5429;DHT22;2737;52.386;9.980;2023-05-07T05:35:56;9.40;99.90
5429;DHT22;2737;52.386;9.980;2023-05-07T05:38:23;9.40;99.90
5429;DHT22;2737;52.386;9.980;2023-05-07T05:40:52;9.50;99.90
5429;DHT22;2737;52.386;9.980;2023-05-07T05:43:19;9.50;99.90
5429;DHT22;2737;52.386;9.980;2023-05-07T05:45:46;9.50;99.90
5429;DHT22;2737;52.386;9.980;2023-05-07T05:48:13;9.50;99.90
5429;DHT22;2737;52.386;9.980;2023-05-07T05:50:42;9.50;99.90
5429;DHT22;2737;52.386;9.980;2023-05-07T05:53:09;9.60;99.90
5429;DHT22;2737;52.386;9.980;2023-05-07T05:55:36;9.60;99.90
5429;DHT22;2737;52.386;9.980;2023-05-07T05:58:04;9.70;99.90
5429;DHT22;2737;52.386;9.980;2023-05-07T06:00:32;9.80;99.90
5429;DHT22;2737;52.386;9.980;2023-05-07T06:02:59;9.90;99.90
5429;DHT22;2737;52.386;9.980;2023-05-07T06:05:26;9.90;99.90
5429;DHT22;2737;52.386;9.980;2023-05-07T06:07:53;9.90;99.90
5429;DHT22;2737;52.386;9.980;2023-05-07T06:10:20;10.00;99.90
5429;DHT22;2737;52.386;9.980;2023-05-07T06:12:47;10.00;99.90
5429;DHT22;2737;52.386;9.980;2023-05-07T06:15:15;10.00;99.90
5429;DHT22;2737;52.386;9.980;2023-05-07T06:17:42;10.00;99.90
5429;DHT22;2737;52.386;9.980;2023-05-07T06:20:09;10.00;99.90
5429;DHT22;2737;52.386;9.980;2023-05-07T06:22:36;10.00;99.90
5429;DHT22;2737;52.386;9.980;2023-05-07T06:25:04;10.00;99.90
5429;DHT22;2737;52.386;9.980;2023-05-07T06:27:31;10.00;99.90
5429;DHT22;2737;52.386;9.980;2023-05-07T06:29:58;10.00;99.90
5429;DHT22;2737;52.386;9.980;2023-05-07T06:32:27;10.00;99.90
5429;DHT22;2737;52.386;9.980;2023-05-07T06:34:54;10.00;99.90
5429;DHT22;2737;52.386;9.980;2023-05-07T06:37:21;10.00;99.90
5429;DHT22;2737;52.386;9.980;2023-05-07T06:39:48;10.00;99.90
5429;DHT22;2737;52.386;9.980;2023-05-07T06:42:15;10.00;99.90
5429;DHT22;2737;52.386;9.980;2023-05-07T06:44:42;10.00;99.90
5429;DHT22;2737;52.386;9.980;2023-05-07T06:47:09;9.90;99.90
5429;DHT22;2737;52.386;9.980;2023-05-07T06:49:37;10.00;99.90
5429;DHT22;2737;52.386;9.980;2023-05-07T06:52:04;10.00;99.90
5429;DHT22;2737;52.386;9.980;2023-05-07T06:54:31;9.90;99.90
5429;DHT22;2737;52.386;9.980;2023-05-07T06:56:58;9.90;99.90
5429;DHT22;2737;52.386;9.980;2023-05-07T06:59:26;10.00;99.90
5429;DHT22;2737;52.386;9.980;2023-05-07T07:01:53;10.00;99.90
5429;DHT22;2737;52.386;9.980;2023-05-07T07:04:20;10.00;99.90
5429;DHT22;2737;52.386;9.980;2023-05-07T07:06:52;10.00;99.90
5429;DHT22;2737;52.386;9.980;2023-05-07T07:09:19;10.10;99.90
5429;DHT22;2737;52.386;9.980;2023-05-07T07:11:46;10.10;99.90
5429;DHT22;2737;52.386;9.980;2023-05-07T07:14:13;10.10;99.90
5429;DHT22;2737;52.386;9.980;2023-05-07T07:16:40;10.20;99.90
5429;DHT22;2737;52.386;9.980;2023-05-07T07:19:07;10.20;99.90
5429;DHT22;2737;52.386;9.980;2023-05-07T07:21:34;10.30;99.90
5429;DHT22;2737;52.386;9.980;2023-05-07T07:24:03;10.30;99.90
5429;DHT22;2737;52.386;9.980;2023-05-07T07:26:30;10.40;99.90
5429;DHT22;2737;52.386;9.980;2023-05-07T07:28:58;10.40;99.90
5429;DHT22;2737;52.386;9.980;2023-05-07T07:31:25;10.40;99.90
5429;DHT22;2737;52.386;9.980;2023-05-07T07:33:51;10.50;99.90
5429;DHT22;2737;52.386;9.980;2023-05-07T07:36:18;10.60;99.90
5429;DHT22;2737;52.386;9.980;2023-05-07T07:38:45;10.60;99.90
5429;DHT22;2737;52.386;9.980;2023-05-07T07:41:14;10.70;99.90
5429;DHT22;2737;52.386;9.980;2023-05-07T07:43:41;10.70;99.90
5429;DHT22;2737;52.386;9.980;2023-05-07T07:46:08;10.70;99.90
5429;DHT22;2737;52.386;9.980;2023-05-07T07:48:35;10.80;99.90
5429;DHT22;2737;52.386;9.980;2023-05-07T07:51:02;10.80;99.90
5429;DHT22;2737;52.386;9.980;2023-05-07T07:53:29;10.80;99.90
5429;DHT22;2737;52.386;9.980;2023-05-07T07:55:56;10.90;99.90
5429;DHT22;2737;52.386;9.980;2023-05-07T07:58:25;10.90;99.90
5429;DHT22;2737;52.386;9.980;2023-05-07T08:00:52;11.00;99.90
5429;DHT22;2737;52.386;9.980;2023-05-07T08:03:21;11.10;99.90
5429;DHT22;2737;52.386;9.980;2023-05-07T08:05:48;11.10;99.90
5429;DHT22;2737;52.386;9.980;2023-05-07T08:08:16;11.10;99.90
5429;DHT22;2737;52.386;9.980;2023-05-07T08:10:43;11.10;99.90
5429;DHT22;2737;52.386;9.980;2023-05-07T08:13:10;11.30;99.90
5429;DHT22;2737;52.386;9.980;2023-05-07T08:15:39;11.50;99.90
5429;DHT22;2737;52.386;9.980;2023-05-07T08:18:06;11.70;99.90
5429;DHT22;2737;52.386;9.980;2023-05-07T08:20:33;11.80;99.90
5429;DHT22;2737;52.386;9.980;2023-05-07T08:23:04;11.80;99.90
5429;DHT22;2737;52.386;9.980;2023-05-07T08:25:33;11.90;99.90
5429;DHT22;2737;52.386;9.980;2023-05-07T08:28:00;11.90;99.90
5429;DHT22;2737;52.386;9.980;2023-05-07T08:30:27;11.90;99.90
5429;DHT22;2737;52.386;9.980;2023-05-07T08:32:55;11.90;99.90
5429;DHT22;2737;52.386;9.980;2023-05-07T08:35:22;11.80;99.90
5429;DHT22;2737;52.386;9.980;2023-05-07T08:37:51;11.70;99.90
5429;DHT22;2737;52.386;9.980;2023-05-07T08:40:18;11.70;99.90
5429;DHT22;2737;52.386;9.980;2023-05-07T08:42:48;11.70;99.90
5429;DHT22;2737;52.386;9.980;2023-05-07T08:45:15;11.50;99.90
5429;DHT22;2737;52.386;9.980;2023-05-07T08:47:46;11.60;99.90
5429;DHT22;2737;52.386;9.980;2023-05-07T08:50:14;11.50;99.90
5429;DHT22;2737;52.386;9.980;2023-05-07T08:52:42;11.60;99.90
5429;DHT22;2737;52.386;9.980;2023-05-07T08:55:09;11.80;99.90
5429;DHT22;2737;52.386;9.980;2023-05-07T08:57:36;11.90;99.90
5429;DHT22;2737;52.386;9.980;2023-05-07T09:00:05;12.00;99.90
5429;DHT22;2737;52.386;9.980;2023-05-07T09:02:32;11.90;99.90
5429;DHT22;2737;52.386;9.980;2023-05-07T09:04:59;11.80;99.90
5429;DHT22;2737;52.386;9.980;2023-05-07T09:07:28;11.70;99.90
5429;DHT22;2737;52.386;9.980;2023-05-07T09:09:55;11.80;99.90
5429;DHT22;2737;52.386;9.980;2023-05-07T09:12:22;12.00;99.90
5429;DHT22;2737;52.386;9.980;2023-05-07T09:14:49;12.20;99.90
5429;DHT22;2737;52.386;9.980;2023-05-07T09:17:17;12.30;99.90
5429;DHT22;2737;52.386;9.980;2023-05-07T09:19:44;12.40;99.90
5429;DHT22;2737;52.386;9.980;2023-05-07T09:22:12;12.60;99.90
5429;DHT22;2737;52.386;9.980;2023-05-07T09:24:40;12.60;99.90
5429;DHT22;2737;52.386;9.980;2023-05-07T09:27:13;12.60;99.90
5429;DHT22;2737;52.386;9.980;2023-05-07T09:29:41;12.70;99.90
5429;DHT22;2737;52.386;9.980;2023-05-07T09:32:08;12.70;99.90
5429;DHT22;2737;52.386;9.980;2023-05-07T09:34:35;12.60;99.90
5429;DHT22;2737;52.386;9.980;2023-05-07T09:37:03;12.50;99.90
5429;DHT22;2737;52.386;9.980;2023-05-07T09:39:40;12.40;99.90
5429;DHT22;2737;52.386;9.980;2023-05-07T09:42:08;12.40;99.90
5429;DHT22;2737;52.386;9.980;2023-05-07T09:44:35;12.50;99.90
5429;DHT22;2737;52.386;9.980;2023-05-07T09:47:05;12.60;99.90
5429;DHT22;2737;52.386;9.980;2023-05-07T09:49:34;12.50;99.90
5429;DHT22;2737;52.386;9.980;2023-05-07T09:52:02;12.50;99.90
5429;DHT22;2737;52.386;9.980;2023-05-07T09:54:33;12.50;99.90
5429;DHT22;2737;52.386;9.980;2023-05-07T09:57:03;12.40;99.90
5429;DHT22;2737;52.386;9.980;2023-05-07T09:59:32;12.40;99.90
5429;DHT22;2737;52.386;9.980;2023-05-07T10:01:59;12.40;99.90
5429;DHT22;2737;52.386;9.980;2023-05-07T10:04:27;12.50;99.90
5429;DHT22;2737;52.386;9.980;2023-05-07T10:06:54;12.30;99.90
5429;DHT22;2737;52.386;9.980;2023-05-07T10:09:23;12.30;99.90
5429;DHT22;2737;52.386;9.980;2023-05-07T10:11:51;12.30;99.90
5429;DHT22;2737;52.386;9.980;2023-05-07T10:14:21;12.30;99.90
5429;DHT22;2737;52.386;9.980;2023-05-07T10:16:48;12.30;99.90
5429;DHT22;2737;52.386;9.980;2023-05-07T10:19:15;12.40;99.90
5429;DHT22;2737;52.386;9.980;2023-05-07T10:21:47;12.70;99.90
5429;DHT22;2737;52.386;9.980;2023-05-07T10:24:19;13.00;99.90
5429;DHT22;2737;52.386;9.980;2023-05-07T10:26:49;12.90;99.90
5429;DHT22;2737;52.386;9.980;2023-05-07T10:29:36;12.80;99.90
5429;DHT22;2737;52.386;9.980;2023-05-07T10:32:19;12.70;99.90
5429;DHT22;2737;52.386;9.980;2023-05-07T10:34:49;12.80;99.90
5429;DHT22;2737;52.386;9.980;2023-05-07T10:37:17;13.20;99.90
5429;DHT22;2737;52.386;9.980;2023-05-07T10:39:45;13.40;99.90
5429;DHT22;2737;52.386;9.980;2023-05-07T10:42:13;13.50;99.90
5429;DHT22;2737;52.386;9.980;2023-05-07T10:44:42;13.50;99.90
5429;DHT22;2737;52.386;9.980;2023-05-07T10:47:10;13.50;99.90
5429;DHT22;2737;52.386;9.980;2023-05-07T10:50:21;13.40;99.90
5429;DHT22;2737;52.386;9.980;2023-05-07T10:53:22;13.20;99.90
5429;DHT22;2737;52.386;9.980;2023-05-07T10:56:24;13.40;99.90
5429;DHT22;2737;52.386;9.980;2023-05-07T10:58:53;13.50;99.90
5429;DHT22;2737;52.386;9.980;2023-05-07T11:01:52;13.40;99.90
5429;DHT22;2737;52.386;9.980;2023-05-07T11:04:19;13.40;99.90
5429;DHT22;2737;52.386;9.980;2023-05-07T11:07:22;13.40;99.90
5429;DHT22;2737;52.386;9.980;2023-05-07T11:10:01;13.60;99.90
5429;DHT22;2737;52.386;9.980;2023-05-07T11:12:49;13.70;99.90
5429;DHT22;2737;52.386;9.980;2023-05-07T11:15:41;13.70;99.90
5429;DHT22;2737;52.386;9.980;2023-05-07T11:18:14;13.80;99.90
5429;DHT22;2737;52.386;9.980;2023-05-07T11:20:53;13.90;99.90
5429;DHT22;2737;52.386;9.980;2023-05-07T11:26:29;13.80;99.90
5429;DHT22;2737;52.386;9.980;2023-05-07T11:28:57;13.80;99.90
5429;DHT22;2737;52.386;9.980;2023-05-07T11:31:26;13.90;99.90
5429;DHT22;2737;52.386;9.980;2023-05-07T11:33:57;13.80;99.90
5429;DHT22;2737;52.386;9.980;2023-05-07T11:36:24;13.80;99.90
5429;DHT22;2737;52.386;9.980;2023-05-07T11:38:52;13.70;99.90
5429;DHT22;2737;52.386;9.980;2023-05-07T11:41:19;13.80;99.90
5429;DHT22;2737;52.386;9.980;2023-05-07T11:43:59;13.70;99.90
5429;DHT22;2737;52.386;9.980;2023-05-07T11:46:27;13.70;99.90
5429;DHT22;2737;52.386;9.980;2023-05-07T11:48:56;13.60;99.90
5429;DHT22;2737;52.386;9.980;2023-05-07T11:51:24;13.50;99.90
5429;DHT22;2737;52.386;9.980;2023-05-07T11:53:53;13.50;99.90
5429;DHT22;2737;52.386;9.980;2023-05-07T11:56:20;13.60;99.90
5429;DHT22;2737;52.386;9.980;2023-05-07T11:58:50;13.80;99.90
5429;DHT22;2737;52.386;9.980;2023-05-07T12:01:17;14.00;99.90
5429;DHT22;2737;52.386;9.980;2023-05-07T12:03:45;14.10;99.90
5429;DHT22;2737;52.386;9.980;2023-05-07T12:06:15;14.00;99.90
5429;DHT22;2737;52.386;9.980;2023-05-07T12:08:44;13.80;99.90
5429;DHT22;2737;52.386;9.980;2023-05-07T12:11:14;13.70;99.90
5429;DHT22;2737;52.386;9.980;2023-05-07T12:13:43;13.70;99.90
5429;DHT22;2737;52.386;9.980;2023-05-07T12:16:10;13.70;99.90
5429;DHT22;2737;52.386;9.980;2023-05-07T12:18:37;13.80;99.90
5429;DHT22;2737;52.386;9.980;2023-05-07T12:21:05;13.70;99.90
5429;DHT22;2737;52.386;9.980;2023-05-07T12:23:36;13.80;99.90
5429;DHT22;2737;52.386;9.980;2023-05-07T12:26:03;13.90;99.90
5429;DHT22;2737;52.386;9.980;2023-05-07T12:28:31;14.00;99.90
5429;DHT22;2737;52.386;9.980;2023-05-07T12:31:02;14.10;99.90
5429;DHT22;2737;52.386;9.980;2023-05-07T12:33:30;14.40;99.90
5429;DHT22;2737;52.386;9.980;2023-05-07T12:35:58;14.50;99.90
5429;DHT22;2737;52.386;9.980;2023-05-07T12:38:25;14.50;99.90
5429;DHT22;2737;52.386;9.980;2023-05-07T12:40:55;14.40;99.90
5429;DHT22;2737;52.386;9.980;2023-05-07T12:43:24;14.50;99.90
5429;DHT22;2737;52.386;9.980;2023-05-07T12:45:54;14.30;99.90
5429;DHT22;2737;52.386;9.980;2023-05-07T12:48:22;14.30;99.90
5429;DHT22;2737;52.386;9.980;2023-05-07T12:50:52;14.50;99.90
5429;DHT22;2737;52.386;9.980;2023-05-07T12:53:22;14.50;99.90
5429;DHT22;2737;52.386;9.980;2023-05-07T12:55:50;14.60;99.90
5429;DHT22;2737;52.386;9.980;2023-05-07T12:58:20;14.70;99.90
5429;DHT22;2737;52.386;9.980;2023-05-07T13:00:48;14.60;99.90
5429;DHT22;2737;52.386;9.980;2023-05-07T13:03:23;14.60;99.90
5429;DHT22;2737;52.386;9.980;2023-05-07T13:05:50;14.60;99.90
5429;DHT22;2737;52.386;9.980;2023-05-07T13:08:25;14.70;99.90
5429;DHT22;2737;52.386;9.980;2023-05-07T13:10:52;14.60;99.90
5429;DHT22;2737;52.386;9.980;2023-05-07T13:13:21;14.60;99.90
5429;DHT22;2737;52.386;9.980;2023-05-07T13:15:48;14.60;99.90
5429;DHT22;2737;52.386;9.980;2023-05-07T13:18:15;14.70;99.90
5429;DHT22;2737;52.386;9.980;2023-05-07T13:20:42;14.70;99.90
5429;DHT22;2737;52.386;9.980;2023-05-07T13:23:09;14.60;99.90
5429;DHT22;2737;52.386;9.980;2023-05-07T13:25:36;14.50;99.90
5429;DHT22;2737;52.386;9.980;2023-05-07T13:28:03;14.50;99.90
5429;DHT22;2737;52.386;9.980;2023-05-07T13:30:32;14.60;99.90
5429;DHT22;2737;52.386;9.980;2023-05-07T13:32:59;14.50;99.90
5429;DHT22;2737;52.386;9.980;2023-05-07T13:35:26;14.50;99.90
5429;DHT22;2737;52.386;9.980;2023-05-07T13:37:53;14.50;99.90
5429;DHT22;2737;52.386;9.980;2023-05-07T13:40:21;14.30;99.90
5429;DHT22;2737;52.386;9.980;2023-05-07T13:42:48;14.20;99.90
5429;DHT22;2737;52.386;9.980;2023-05-07T13:45:16;14.00;99.90
5429;DHT22;2737;52.386;9.980;2023-05-07T13:47:45;13.80;99.90
5429;DHT22;2737;52.386;9.980;2023-05-07T13:50:13;13.70;99.90
5429;DHT22;2737;52.386;9.980;2023-05-07T13:52:41;13.80;99.90
5429;DHT22;2737;52.386;9.980;2023-05-07T13:55:11;13.70;99.90
5429;DHT22;2737;52.386;9.980;2023-05-07T13:57:38;13.50;99.90
5429;DHT22;2737;52.386;9.980;2023-05-07T14:00:07;13.60;99.90
5429;DHT22;2737;52.386;9.980;2023-05-07T14:02:34;13.60;99.90
5429;DHT22;2737;52.386;9.980;2023-05-07T14:05:03;13.70;99.90
5429;DHT22;2737;52.386;9.980;2023-05-07T14:07:30;13.70;99.90
5429;DHT22;2737;52.386;9.980;2023-05-07T14:09:57;13.80;99.90
5429;DHT22;2737;52.386;9.980;2023-05-07T14:12:24;13.80;99.90
5429;DHT22;2737;52.386;9.980;2023-05-07T14:14:51;13.90;99.90
5429;DHT22;2737;52.386;9.980;2023-05-07T14:17:18;13.90;99.90
5429;DHT22;2737;52.386;9.980;2023-05-07T14:19:46;13.90;99.90
5429;DHT22;2737;52.386;9.980;2023-05-07T14:22:14;13.90;99.90
5429;DHT22;2737;52.386;9.980;2023-05-07T14:24:42;14.00;99.90
5429;DHT22;2737;52.386;9.980;2023-05-07T14:27:09;14.00;99.90
5429;DHT22;2737;52.386;9.980;2023-05-07T14:29:36;14.10;99.90
5429;DHT22;2737;52.386;9.980;2023-05-07T14:32:03;14.00;99.90
5429;DHT22;2737;52.386;9.980;2023-05-07T14:34:31;14.00;99.90
5429;DHT22;2737;52.386;9.980;2023-05-07T14:36:59;14.10;99.90
5429;DHT22;2737;52.386;9.980;2023-05-07T14:39:27;14.20;99.90
5429;DHT22;2737;52.386;9.980;2023-05-07T14:41:55;14.20;99.90
5429;DHT22;2737;52.386;9.980;2023-05-07T14:44:23;14.20;99.90
5429;DHT22;2737;52.386;9.980;2023-05-07T14:46:50;14.10;99.90
5429;DHT22;2737;52.386;9.980;2023-05-07T14:49:17;14.00;99.90
5429;DHT22;2737;52.386;9.980;2023-05-07T14:51:44;14.00;99.90
5429;DHT22;2737;52.386;9.980;2023-05-07T14:54:12;14.20;99.90
5429;DHT22;2737;52.386;9.980;2023-05-07T14:56:41;14.30;99.90
5429;DHT22;2737;52.386;9.980;2023-05-07T14:59:08;14.40;99.90
5429;DHT22;2737;52.386;9.980;2023-05-07T15:01:36;14.40;99.90
5429;DHT22;2737;52.386;9.980;2023-05-07T15:04:03;14.50;99.90
5429;DHT22;2737;52.386;9.980;2023-05-07T15:06:30;14.60;99.90
5429;DHT22;2737;52.386;9.980;2023-05-07T15:08:58;14.70;99.90
5429;DHT22;2737;52.386;9.980;2023-05-07T15:11:25;14.80;99.90
5429;DHT22;2737;52.386;9.980;2023-05-07T15:13:53;14.80;99.90
5429;DHT22;2737;52.386;9.980;2023-05-07T15:16:20;14.70;99.90
5429;DHT22;2737;52.386;9.980;2023-05-07T15:18:48;14.70;99.90
5429;DHT22;2737;52.386;9.980;2023-05-07T15:21:15;14.60;99.90
5429;DHT22;2737;52.386;9.980;2023-05-07T15:23:42;14.40;99.90
5429;DHT22;2737;52.386;9.980;2023-05-07T15:26:10;14.40;99.90
5429;DHT22;2737;52.386;9.980;2023-05-07T15:28:37;14.40;99.90
5429;DHT22;2737;52.386;9.980;2023-05-07T15:31:06;14.30;99.90
5429;DHT22;2737;52.386;9.980;2023-05-07T15:33:34;14.20;99.90
5429;DHT22;2737;52.386;9.980;2023-05-07T15:36:01;14.20;99.90
5429;DHT22;2737;52.386;9.980;2023-05-07T15:38:30;14.10;99.90
5429;DHT22;2737;52.386;9.980;2023-05-07T15:40:57;14.10;99.90
5429;DHT22;2737;52.386;9.980;2023-05-07T15:43:24;14.10;99.90
5429;DHT22;2737;52.386;9.980;2023-05-07T15:45:51;14.10;99.90
5429;DHT22;2737;52.386;9.980;2023-05-07T15:48:20;14.20;99.90
5429;DHT22;2737;52.386;9.980;2023-05-07T15:50:47;14.30;99.90
5429;DHT22;2737;52.386;9.980;2023-05-07T15:53:14;14.30;99.90
5429;DHT22;2737;52.386;9.980;2023-05-07T15:55:41;14.30;99.90
5429;DHT22;2737;52.386;9.980;2023-05-07T15:58:09;14.30;99.90
5429;DHT22;2737;52.386;9.980;2023-05-07T16:00:37;14.20;99.90
5429;DHT22;2737;52.386;9.980;2023-05-07T16:03:06;14.10;99.90
5429;DHT22;2737;52.386;9.980;2023-05-07T16:05:35;14.00;99.90
5429;DHT22;2737;52.386;9.980;2023-05-07T16:08:02;14.00;99.90
5429;DHT22;2737;52.386;9.980;2023-05-07T16:10:30;13.90;99.90
5429;DHT22;2737;52.386;9.980;2023-05-07T16:12:57;14.00;99.90
5429;DHT22;2737;52.386;9.980;2023-05-07T16:15:24;14.00;99.90
5429;DHT22;2737;52.386;9.980;2023-05-07T16:17:51;14.00;99.90